Time;durP1;ratioP1;P1;durP2;ratioP2;P2;SDS_P1;SDS_P2;PMS_P1;PMS_P2;Temp;Humidity;BMP_temperature;BMP_pressure;BME280_temperature;BME280_humidity;BME280_pressure;Samples;Min_cycle;Max_cycle;Signal;HPM_P1;HPM_P2
2022/12/30 00:00:33;;;;;;;6.60;1.73;;;7.20;99.90;;;;;;5052110;28;20484;-85
2022/12/30 00:03:00;;;;;;;11.20;2.70;;;7.20;99.90;;;;;;5052847;28;20467;-84
2022/12/30 00:05:27;;;;;;;8.77;2.07;;;7.20;99.90;;;;;;5052785;28;20519;-84
2022/12/30 00:07:53;;;;;;;5.40;2.00;;;7.20;99.90;;;;;;5053704;28;20472;-83
2022/12/30 00:10:20;;;;;;;9.33;2.23;;;7.10;99.90;;;;;;5053303;28;20548;-84
2022/12/30 00:35:16;;;;;;;9.33;2.50;;;7.10;99.90;;;;;;5033717;28;20818;-85
2022/12/30 00:37:42;;;;;;;8.30;2.20;;;7.00;99.90;;;;;;5037807;28;20540;-85
2022/12/30 00:40:11;;;;;;;8.30;2.33;;;7.00;99.90;;;;;;5040251;28;20555;-84
2022/12/30 00:45:24;;;;;;;11.40;2.43;;;7.00;99.90;;;;;;5039528;28;20455;-84
2022/12/30 00:47:53;;;;;;;7.30;2.03;;;7.00;99.90;;;;;;5037699;28;20460;-84
2022/12/30 00:58:32;;;;;;;13.60;1.93;;;7.00;99.90;;;;;;5035526;28;20534;-83
2022/12/30 01:00:59;;;;;;;6.67;2.40;;;7.00;99.90;;;;;;5037656;28;20558;-85
2022/12/30 01:03:27;;;;;;;11.33;2.50;;;6.90;99.90;;;;;;5036774;28;20462;-86
2022/12/30 01:05:54;;;;;;;12.23;1.90;;;6.90;99.90;;;;;;5035989;28;20580;-85
2022/12/30 01:08:21;;;;;;;5.07;2.20;;;6.90;99.90;;;;;;5030920;28;20457;-85
2022/12/30 01:10:48;;;;;;;6.77;1.60;;;6.90;99.90;;;;;;5031396;28;20510;-84
2022/12/30 01:13:14;;;;;;;9.60;2.20;;;6.90;99.90;;;;;;5038926;28;20484;-85
2022/12/30 01:15:41;;;;;;;13.33;2.80;;;7.00;99.90;;;;;;5041012;28;20547;-84
2022/12/30 01:18:08;;;;;;;9.33;2.03;;;7.00;99.90;;;;;;5041087;28;20756;-84
2022/12/30 01:20:37;;;;;;;5.80;1.50;;;7.00;99.90;;;;;;5040502;28;20490;-85
2022/12/30 01:23:04;;;;;;;8.07;1.77;;;6.90;99.90;;;;;;5041954;28;20459;-86
2022/12/30 01:25:31;;;;;;;8.23;2.10;;;7.00;99.90;;;;;;5043870;28;20525;-84
2022/12/30 01:27:58;;;;;;;10.83;2.67;;;7.00;99.90;;;;;;5042921;28;20458;-85
2022/12/30 01:30:25;;;;;;;7.73;2.40;;;6.90;99.90;;;;;;5044282;28;20476;-85
2022/12/30 01:32:51;;;;;;;9.47;1.90;;;6.90;99.90;;;;;;5044858;28;20547;-87
2022/12/30 01:35:18;;;;;;;5.87;1.90;;;6.90;99.90;;;;;;5044618;28;20445;-85
2022/12/30 01:37:49;;;;;;;13.97;2.30;;;6.80;99.90;;;;;;5043812;28;20551;-85
2022/12/30 01:40:16;;;;;;;10.40;3.07;;;6.80;99.90;;;;;;5044769;28;20475;-85
2022/12/30 01:42:43;;;;;;;10.87;1.90;;;6.80;99.90;;;;;;5043613;28;20454;-84
2022/12/30 01:45:19;;;;;;;11.53;2.63;;;6.70;99.90;;;;;;5043664;28;20830;-84
2022/12/30 01:47:53;;;;;;;11.60;3.07;;;6.80;99.90;;;;;;5043862;28;20569;-84
2022/12/30 01:50:27;;;;;;;13.27;2.90;;;6.80;99.90;;;;;;5040612;28;20847;-83
2022/12/30 01:53:01;;;;;;;10.93;2.23;;;6.70;99.90;;;;;;5040321;28;20433;-83
2022/12/30 01:55:32;;;;;;;11.40;2.57;;;6.70;99.90;;;;;;5038610;28;20526;-84
2022/12/30 01:58:06;;;;;;;7.57;2.07;;;6.70;99.90;;;;;;5040212;28;20458;-84
2022/12/30 02:00:33;;;;;;;13.03;2.00;;;6.70;99.90;;;;;;5038330;28;20519;-83
2022/12/30 02:03:00;;;;;;;4.50;1.73;;;6.70;99.90;;;;;;5037309;28;20466;-83
2022/12/30 02:05:30;;;;;;;11.03;2.10;;;6.70;99.90;;;;;;5036103;28;20540;-84
2022/12/30 02:08:04;;;;;;;3.33;1.60;;;6.70;99.90;;;;;;5035806;28;20474;-84
2022/12/30 02:10:32;;;;;;;10.33;2.20;;;6.70;99.90;;;;;;5035836;28;20850;-83
2022/12/30 02:12:59;;;;;;;11.67;2.33;;;6.70;99.90;;;;;;5035961;28;20462;-83
2022/12/30 02:15:30;;;;;;;7.60;2.10;;;6.70;99.90;;;;;;5035749;28;20503;-84
2022/12/30 02:18:05;;;;;;;8.83;2.30;;;6.60;99.90;;;;;;5035069;28;20952;-83
2022/12/30 02:21:07;;;;;;;9.20;2.40;;;6.60;99.90;;;;;;5036715;28;20900;-83
2022/12/30 02:23:54;;;;;;;11.90;2.70;;;6.60;99.90;;;;;;5036155;28;20461;-83
2022/12/30 02:26:48;;;;;;;7.23;2.00;;;6.60;99.90;;;;;;5015647;28;21011;-82
2022/12/30 02:29:42;;;;;;;7.13;1.90;;;6.60;99.90;;;;;;5029505;28;20457;-84
2022/12/30 02:32:14;;;;;;;8.63;2.80;;;6.60;99.90;;;;;;5035698;28;20832;-84
2022/12/30 02:34:51;;;;;;;6.17;2.60;;;6.70;99.90;;;;;;5035032;28;20463;-84
2022/12/30 02:37:28;;;;;;;8.00;2.03;;;6.70;99.90;;;;;;5036592;28;20447;-85
2022/12/30 02:40:04;;;;;;;6.47;1.70;;;6.70;99.90;;;;;;5035006;28;20481;-84
2022/12/30 02:45:40;;;;;;;14.60;2.60;;;6.60;99.90;;;;;;4974165;28;20462;-85
2022/12/30 02:48:14;;;;;;;9.10;2.27;;;6.60;99.90;;;;;;4972345;28;20584;-86
2022/12/30 02:53:30;;;;;;;5.97;1.80;;;6.50;99.90;;;;;;5035765;28;20522;-86
2022/12/30 02:55:57;;;;;;;10.43;2.70;;;6.40;99.90;;;;;;5038487;28;20458;-84
2022/12/30 02:58:27;;;;;;;10.60;2.40;;;6.50;99.90;;;;;;5039401;28;20519;-84
2022/12/30 03:04:05;;;;;;;8.03;2.60;;;6.60;99.90;;;;;;5040233;28;20483;-84
2022/12/30 03:07:03;;;;;;;5.53;1.63;;;6.50;99.90;;;;;;5040504;28;20930;-83
2022/12/30 03:11:12;;;;;;;9.20;2.17;;;6.50;99.90;;;;;;5050596;28;20543;-84
2022/12/30 03:12:39;;;;;;;7.17;2.53;;;6.60;99.90;;;;;;5052089;28;20438;-83
2022/12/30 03:15:11;;;;;;;5.00;1.67;;;6.50;99.90;;;;;;5046653;28;20531;-84
2022/12/30 03:17:41;;;;;;;10.63;2.37;;;6.50;99.90;;;;;;5037218;28;20933;-84
2022/12/30 03:20:12;;;;;;;7.93;1.30;;;6.50;99.90;;;;;;5019571;28;20483;-82
2022/12/30 03:28:15;;;;;;;11.53;2.43;;;6.50;99.90;;;;;;5036806;28;20568;-81
2022/12/30 03:30:47;;;;;;;14.93;2.57;;;6.60;99.90;;;;;;5037000;28;20849;-81
2022/12/30 03:33:14;;;;;;;6.63;2.40;;;6.60;99.90;;;;;;5038929;28;20881;-82
2022/12/30 03:35:48;;;;;;;10.17;2.23;;;6.60;99.90;;;;;;5039968;28;20455;-83
2022/12/30 03:38:18;;;;;;;10.67;1.93;;;6.60;99.90;;;;;;5037709;28;20438;-82
2022/12/30 03:40:46;;;;;;;10.73;2.50;;;6.60;99.90;;;;;;5037676;28;20465;-82
2022/12/30 03:43:14;;;;;;;15.83;2.10;;;6.60;99.90;;;;;;5037770;28;20449;-80
2022/12/30 03:45:41;;;;;;;10.53;2.40;;;6.60;99.90;;;;;;5039993;28;20477;-81
2022/12/30 03:48:08;;;;;;;12.87;1.97;;;6.60;99.90;;;;;;5040745;28;20884;-80
2022/12/30 03:50:35;;;;;;;9.57;2.03;;;6.50;99.90;;;;;;5040151;28;20496;-80
2022/12/30 03:53:03;;;;;;;8.03;2.07;;;6.50;99.90;;;;;;5038925;28;20451;-80
2022/12/30 03:55:30;;;;;;;13.77;2.80;;;6.50;99.90;;;;;;5039643;28;20450;-81
2022/12/30 03:57:57;;;;;;;7.40;2.80;;;6.50;99.90;;;;;;5037485;28;20634;-79
2022/12/30 04:00:23;;;;;;;9.70;2.07;;;6.50;99.90;;;;;;5037136;28;20491;-80
2022/12/30 04:02:50;;;;;;;11.37;2.63;;;6.60;99.90;;;;;;5036900;28;20448;-81
2022/12/30 04:05:17;;;;;;;7.83;1.93;;;6.50;99.90;;;;;;5037345;28;20543;-81
2022/12/30 04:07:44;;;;;;;8.43;2.30;;;6.50;99.90;;;;;;5038714;28;20495;-82
2022/12/30 04:10:12;;;;;;;6.00;2.37;;;6.40;99.90;;;;;;5039119;28;21110;-81
2022/12/30 04:12:39;;;;;;;11.73;1.77;;;6.40;99.90;;;;;;5038127;28;20979;-82
2022/12/30 04:15:07;;;;;;;6.63;2.00;;;6.50;99.90;;;;;;5038601;28;20460;-81
2022/12/30 04:17:34;;;;;;;8.27;2.37;;;6.50;99.90;;;;;;5036157;28;20461;-80
2022/12/30 04:20:01;;;;;;;10.17;2.43;;;6.40;99.90;;;;;;5038623;28;20475;-85
2022/12/30 04:22:29;;;;;;;14.30;3.67;;;6.30;99.90;;;;;;5039671;28;20500;-79
2022/12/30 04:24:55;;;;;;;18.83;2.53;;;6.30;99.90;;;;;;5039806;28;20453;-79
2022/12/30 04:27:24;;;;;;;12.33;1.77;;;6.30;99.90;;;;;;5043341;28;21191;-79
2022/12/30 04:29:50;;;;;;;4.87;1.80;;;6.30;99.90;;;;;;5042887;28;20547;-79
2022/12/30 04:32:17;;;;;;;11.63;2.13;;;6.20;99.90;;;;;;5045782;28;20548;-78
2022/12/30 04:34:44;;;;;;;5.40;2.33;;;6.20;99.90;;;;;;5045039;28;20485;-79
2022/12/30 04:37:11;;;;;;;11.57;4.03;;;6.10;99.90;;;;;;5044984;28;20435;-79
2022/12/30 04:39:37;;;;;;;8.03;2.17;;;6.10;99.90;;;;;;5044135;28;21025;-79
2022/12/30 04:42:04;;;;;;;4.27;1.63;;;6.10;99.90;;;;;;5041313;28;20465;-80
2022/12/30 04:44:32;;;;;;;13.87;2.50;;;6.10;99.90;;;;;;5042971;28;20462;-79
2022/12/30 04:46:59;;;;;;;7.33;1.57;;;6.10;99.90;;;;;;5045272;28;20502;-81
2022/12/30 04:49:26;;;;;;;5.63;1.73;;;6.10;99.90;;;;;;5027323;28;20496;-78
2022/12/30 04:51:53;;;;;;;7.77;2.23;;;6.10;99.90;;;;;;5043653;28;21027;-78
2022/12/30 04:54:20;;;;;;;13.27;2.33;;;6.10;99.90;;;;;;5043326;28;20505;-78
2022/12/30 04:56:46;;;;;;;8.70;2.60;;;6.20;99.90;;;;;;5043329;28;20538;-78
2022/12/30 04:59:13;;;;;;;7.63;2.10;;;6.10;99.90;;;;;;5038760;28;20531;-77
2022/12/30 05:01:41;;;;;;;12.73;2.73;;;6.10;99.90;;;;;;5039015;28;20493;-79
2022/12/30 05:04:08;;;;;;;12.10;2.60;;;6.20;99.90;;;;;;5041929;28;20458;-77
2022/12/30 05:06:35;;;;;;;7.77;2.40;;;6.20;99.90;;;;;;5039488;28;21043;-77
2022/12/30 05:09:02;;;;;;;11.10;1.97;;;6.20;99.90;;;;;;5038546;28;20487;-77
2022/12/30 05:11:28;;;;;;;15.73;2.73;;;6.10;99.90;;;;;;5041356;28;20478;-78
2022/12/30 05:13:55;;;;;;;9.23;2.07;;;6.10;99.90;;;;;;5040794;28;20902;-77
2022/12/30 05:16:22;;;;;;;7.13;2.20;;;6.00;99.90;;;;;;5038918;28;20462;-77
2022/12/30 05:18:50;;;;;;;11.00;1.90;;;5.90;99.90;;;;;;5041024;28;20535;-78
2022/12/30 05:21:17;;;;;;;9.47;2.47;;;6.00;99.90;;;;;;5065617;22;20485;-82
2022/12/30 05:26:28;;;;;;;13.83;2.93;;;5.90;99.90;;;;;;5056201;28;20505;-79
2022/12/30 05:28:55;;;;;;;8.07;1.80;;;5.90;99.90;;;;;;5052399;28;20501;-80
2022/12/30 05:31:22;;;;;;;7.83;1.97;;;6.00;99.90;;;;;;5051447;28;20985;-81
2022/12/30 05:33:50;;;;;;;10.23;2.93;;;5.90;99.90;;;;;;5060178;28;20438;-80
2022/12/30 05:36:17;;;;;;;9.20;2.93;;;5.90;99.90;;;;;;5057762;28;20451;-82
2022/12/30 05:38:43;;;;;;;8.00;2.30;;;5.80;99.90;;;;;;5054443;28;20450;-81
2022/12/30 05:41:11;;;;;;;3.73;1.63;;;5.80;99.90;;;;;;5059753;28;20465;-80
2022/12/30 05:43:38;;;;;;;8.00;2.40;;;5.80;99.90;;;;;;5050780;28;20454;-82
2022/12/30 05:46:05;;;;;;;11.53;4.00;;;5.90;99.90;;;;;;5060604;28;20827;-82
2022/12/30 05:48:32;;;;;;;10.83;3.03;;;5.80;99.90;;;;;;5042915;28;20485;-80
2022/12/30 05:51:00;;;;;;;6.57;1.77;;;5.80;99.90;;;;;;5047735;28;21011;-80
2022/12/30 05:53:26;;;;;;;9.20;2.50;;;5.80;99.90;;;;;;5051627;28;20503;-82
2022/12/30 05:55:53;;;;;;;9.23;3.00;;;5.70;99.90;;;;;;5058297;28;20514;-81
2022/12/30 05:58:20;;;;;;;10.67;2.23;;;5.80;99.90;;;;;;5058478;28;20475;-80
2022/12/30 06:00:49;;;;;;;5.87;1.73;;;5.80;99.90;;;;;;5058986;28;20459;-81
2022/12/30 06:03:16;;;;;;;8.77;1.70;;;5.80;99.90;;;;;;5048777;28;20575;-78
2022/12/30 06:05:43;;;;;;;4.20;1.43;;;5.90;99.90;;;;;;5059326;28;20526;-82
2022/12/30 06:08:13;;;;;;;8.50;1.73;;;5.90;99.90;;;;;;5057949;28;20506;-81
2022/12/30 06:10:40;;;;;;;5.60;1.87;;;5.90;99.90;;;;;;5075746;28;20507;-82
2022/12/30 06:13:07;;;;;;;7.67;2.03;;;5.90;99.90;;;;;;5079175;28;20536;-82
2022/12/30 06:15:34;;;;;;;7.57;1.90;;;5.90;99.90;;;;;;5078593;28;20507;-82
2022/12/30 06:18:01;;;;;;;9.17;2.20;;;5.90;99.90;;;;;;5077061;28;20480;-84
2022/12/30 06:20:27;;;;;;;16.00;4.90;;;6.00;99.90;;;;;;5077110;28;20917;-85
2022/12/30 06:22:54;;;;;;;6.97;2.50;;;6.00;99.90;;;;;;5077418;28;20540;-82
2022/12/30 06:25:22;;;;;;;7.53;1.73;;;6.00;99.90;;;;;;5068062;28;20452;-81
2022/12/30 06:27:49;;;;;;;8.40;2.00;;;6.10;99.90;;;;;;5060198;28;20872;-83
2022/12/30 06:30:16;;;;;;;7.30;1.70;;;6.00;99.90;;;;;;5045493;28;20457;-81
2022/12/30 06:32:43;;;;;;;5.00;1.83;;;6.10;99.90;;;;;;5045378;28;20543;-82
2022/12/30 06:35:11;;;;;;;6.07;1.87;;;6.20;99.90;;;;;;5056403;28;20514;-81
2022/12/30 06:37:37;;;;;;;8.70;1.53;;;6.20;99.90;;;;;;5039162;28;20441;-81
2022/12/30 06:40:05;;;;;;;5.20;1.53;;;6.20;99.90;;;;;;5038646;28;20457;-81
2022/12/30 06:42:34;;;;;;;7.33;2.17;;;6.20;99.90;;;;;;5039915;28;20475;-82
2022/12/30 06:45:00;;;;;;;8.30;1.60;;;6.20;99.90;;;;;;5038751;28;20544;-82
2022/12/30 06:47:27;;;;;;;6.47;2.07;;;6.20;99.90;;;;;;5039508;28;20517;-80
2022/12/30 06:49:54;;;;;;;6.80;2.00;;;6.20;99.90;;;;;;5038862;28;20451;-82
2022/12/30 06:52:22;;;;;;;5.50;1.73;;;6.20;99.90;;;;;;5040018;28;20473;-81
2022/12/30 06:54:48;;;;;;;6.43;1.80;;;6.20;99.90;;;;;;5040545;28;20957;-82
2022/12/30 06:57:15;;;;;;;8.70;2.17;;;6.20;99.90;;;;;;5040091;28;20486;-81
2022/12/30 06:59:43;;;;;;;4.10;1.40;;;6.20;99.90;;;;;;5040389;28;20834;-80
2022/12/30 07:02:11;;;;;;;6.27;2.00;;;6.20;99.90;;;;;;5040470;28;20550;-83
2022/12/30 07:04:38;;;;;;;6.43;1.47;;;6.20;99.90;;;;;;5040586;28;20456;-81
2022/12/30 07:07:05;;;;;;;7.33;1.87;;;6.10;99.90;;;;;;5052582;28;20538;-83
2022/12/30 07:09:32;;;;;;;3.20;1.63;;;6.10;99.90;;;;;;5057841;28;20492;-82
2022/12/30 07:11:59;;;;;;;3.83;1.87;;;6.10;99.90;;;;;;5056671;28;20465;-82
2022/12/30 07:14:25;;;;;;;4.90;1.53;;;6.20;99.90;;;;;;5057726;28;20450;-82
2022/12/30 07:16:54;;;;;;;7.43;1.83;;;6.20;99.90;;;;;;5057736;28;20459;-83
2022/12/30 07:19:20;;;;;;;5.03;1.63;;;6.20;99.90;;;;;;5057490;28;20447;-82
2022/12/30 07:21:47;;;;;;;10.03;1.60;;;6.20;99.90;;;;;;5046273;28;20491;-82
2022/12/30 07:24:14;;;;;;;3.43;1.40;;;6.20;99.90;;;;;;5057336;28;20455;-83
2022/12/30 07:26:41;;;;;;;6.13;1.50;;;6.20;99.90;;;;;;5051675;28;20461;-82
2022/12/30 07:29:07;;;;;;;6.57;1.77;;;6.30;99.90;;;;;;5045899;28;20573;-82
2022/12/30 07:31:34;;;;;;;9.30;1.87;;;6.30;99.90;;;;;;5057763;28;20470;-83
2022/12/30 07:34:03;;;;;;;4.57;2.50;;;6.40;99.90;;;;;;5053626;28;20444;-82
2022/12/30 07:36:30;;;;;;;6.90;1.70;;;6.40;99.90;;;;;;5038112;28;20506;-81
2022/12/30 07:38:57;;;;;;;8.70;1.90;;;6.40;99.90;;;;;;5035646;28;20894;-83
2022/12/30 07:41:24;;;;;;;9.13;1.87;;;6.40;99.90;;;;;;5037475;28;20839;-83
2022/12/30 07:43:51;;;;;;;10.90;1.70;;;6.50;99.90;;;;;;5036591;28;20452;-83
2022/12/30 07:46:18;;;;;;;3.73;1.30;;;6.50;99.90;;;;;;5040069;28;20451;-82
2022/12/30 07:48:45;;;;;;;9.03;1.83;;;6.50;99.90;;;;;;5056293;28;20485;-83
2022/12/30 07:51:15;;;;;;;8.27;2.30;;;6.50;99.90;;;;;;5057621;28;20904;-81
2022/12/30 07:53:42;;;;;;;5.73;1.80;;;6.50;99.90;;;;;;5059882;28;20459;-83
2022/12/30 07:56:11;;;;;;;4.87;1.67;;;6.50;99.90;;;;;;5059259;28;20518;-83
2022/12/30 07:58:38;;;;;;;5.30;1.20;;;6.50;99.90;;;;;;5056856;28;20828;-83
2022/12/30 08:01:06;;;;;;;4.23;1.10;;;6.60;99.90;;;;;;5058926;28;20459;-83
2022/12/30 08:03:33;;;;;;;6.13;1.90;;;6.70;99.90;;;;;;5057254;28;20489;-84
2022/12/30 08:06:04;;;;;;;6.20;1.47;;;6.70;99.90;;;;;;5045853;28;20448;-82
2022/12/30 08:08:33;;;;;;;3.67;1.30;;;6.80;99.90;;;;;;5037947;28;20480;-82
2022/12/30 08:11:00;;;;;;;3.40;1.37;;;6.80;99.90;;;;;;5057160;28;20994;-82
2022/12/30 08:13:28;;;;;;;6.23;1.43;;;6.80;99.90;;;;;;5055472;28;20455;-81
2022/12/30 08:15:54;;;;;;;6.17;2.17;;;6.90;99.90;;;;;;5054788;28;20448;-84
2022/12/30 08:18:21;;;;;;;5.93;1.73;;;7.00;99.90;;;;;;5053758;28;20458;-82
2022/12/30 08:20:48;;;;;;;9.90;1.20;;;7.00;99.90;;;;;;5045178;28;20959;-82
2022/12/30 08:23:15;;;;;;;7.67;1.60;;;7.10;99.90;;;;;;5043898;28;20502;-82
2022/12/30 08:25:43;;;;;;;7.20;2.20;;;7.00;99.90;;;;;;5058214;28;20531;-82
2022/12/30 08:28:10;;;;;;;5.30;1.17;;;7.10;99.90;;;;;;5058366;28;20486;-82
2022/12/30 08:30:39;;;;;;;5.13;1.47;;;7.10;99.90;;;;;;5058155;28;20955;-82
2022/12/30 08:33:06;;;;;;;3.30;1.60;;;7.20;99.90;;;;;;5058243;28;20612;-83
2022/12/30 08:35:33;;;;;;;9.17;2.33;;;7.30;99.90;;;;;;5049934;28;20457;-83
2022/12/30 08:37:59;;;;;;;6.97;1.60;;;7.40;99.90;;;;;;5038032;28;20456;-83
2022/12/30 08:40:26;;;;;;;6.23;1.63;;;7.40;99.90;;;;;;5038686;28;20457;-83
2022/12/30 08:42:54;;;;;;;6.70;1.27;;;7.40;99.90;;;;;;5048312;28;20536;-78
2022/12/30 08:45:21;;;;;;;3.00;1.13;;;7.50;99.90;;;;;;5050229;28;20952;-82
2022/12/30 08:47:48;;;;;;;8.67;1.30;;;7.60;99.90;;;;;;5052788;28;20476;-81
2022/12/30 08:50:15;;;;;;;15.40;8.13;;;7.60;99.90;;;;;;5039613;28;20479;-82
2022/12/30 08:52:42;;;;;;;8.20;3.70;;;7.70;99.90;;;;;;5057797;28;20468;-80
2022/12/30 08:55:09;;;;;;;4.73;1.40;;;7.80;99.90;;;;;;5056498;28;20875;-80
2022/12/30 08:57:38;;;;;;;2.20;1.20;;;7.80;99.90;;;;;;5046493;28;20936;-82
2022/12/30 09:00:08;;;;;;;3.20;0.83;;;7.90;99.90;;;;;;5057599;28;20436;-79
2022/12/30 09:02:35;;;;;;;3.97;1.30;;;8.00;99.90;;;;;;5053658;28;20478;-82
2022/12/30 09:05:02;;;;;;;5.40;1.27;;;8.00;99.90;;;;;;5057136;28;20531;-82
2022/12/30 09:07:29;;;;;;;5.30;1.50;;;8.10;99.90;;;;;;5048294;28;20513;-83
2022/12/30 09:09:56;;;;;;;7.10;1.30;;;8.10;99.90;;;;;;5036178;28;20488;-81
2022/12/30 09:12:23;;;;;;;3.80;1.23;;;8.20;99.90;;;;;;5053030;28;20531;-82
2022/12/30 09:14:50;;;;;;;4.17;1.10;;;8.20;99.90;;;;;;5057737;28;20452;-82
2022/12/30 09:17:18;;;;;;;5.93;1.57;;;8.40;99.90;;;;;;5057586;28;20496;-81
2022/12/30 09:19:45;;;;;;;11.80;1.90;;;8.40;99.90;;;;;;5053958;28;20449;-82
2022/12/30 09:22:12;;;;;;;3.77;0.97;;;8.40;99.90;;;;;;5053858;28;20897;-81
2022/12/30 09:24:38;;;;;;;2.73;1.10;;;8.50;99.90;;;;;;5056924;28;20458;-80
2022/12/30 09:27:05;;;;;;;3.80;1.53;;;8.50;99.90;;;;;;5047417;28;20434;-81
2022/12/30 09:29:32;;;;;;;6.30;1.10;;;8.60;99.90;;;;;;5036288;28;20496;-82
2022/12/30 09:31:59;;;;;;;2.53;1.30;;;8.70;99.90;;;;;;5054165;28;20566;-82
2022/12/30 09:34:27;;;;;;;9.73;1.27;;;8.90;99.90;;;;;;5057786;28;20451;-81
2022/12/30 09:36:54;;;;;;;8.70;1.50;;;8.90;99.90;;;;;;5059773;28;21032;-81
2022/12/30 09:39:30;;;;;;;4.80;1.53;;;8.90;99.90;;;;;;5059749;28;20525;-80
2022/12/30 09:45:02;;;;;;;4.07;1.00;;;9.10;99.90;;;;;;5060687;28;20424;-82
2022/12/30 09:47:33;;;;;;;5.43;1.30;;;9.10;99.90;;;;;;5064613;28;20426;-82
2022/12/30 09:50:06;;;;;;;5.50;1.50;;;9.10;99.90;;;;;;5067388;28;20488;-82
2022/12/30 09:52:36;;;;;;;5.77;1.70;;;9.20;99.90;;;;;;5055868;28;20537;-81
2022/12/30 09:55:10;;;;;;;5.93;1.40;;;9.30;99.90;;;;;;5055472;28;20776;-81
2022/12/30 09:57:38;;;;;;;5.97;1.57;;;9.30;99.90;;;;;;5054635;28;20501;-81
2022/12/30 10:00:12;;;;;;;3.70;1.67;;;9.30;99.90;;;;;;5061516;28;20468;-81
2022/12/30 10:02:54;;;;;;;5.40;1.57;;;9.40;99.90;;;;;;5069451;28;20495;-82
2022/12/30 10:05:36;;;;;;;2.97;1.17;;;9.50;99.90;;;;;;5062090;28;20434;-81
2022/12/30 10:08:16;;;;;;;5.40;1.40;;;9.50;99.90;;;;;;5060581;28;20443;-81
2022/12/30 10:10:48;;;;;;;4.80;1.40;;;9.50;99.90;;;;;;5051514;28;20456;-82
2022/12/30 10:13:19;;;;;;;5.10;1.40;;;9.50;99.90;;;;;;5041592;28;21011;-81
2022/12/30 10:15:53;;;;;;;2.03;0.87;;;9.60;99.90;;;;;;5042053;28;20529;-81
2022/12/30 10:18:45;;;;;;;7.80;1.67;;;9.70;99.90;;;;;;5040347;28;20467;-81
2022/12/30 10:21:27;;;;;;;8.03;1.43;;;9.70;99.90;;;;;;5053060;28;20456;-82
2022/12/30 10:24:07;;;;;;;3.20;1.20;;;9.70;99.90;;;;;;5061755;28;20519;-81
2022/12/30 10:26:40;;;;;;;4.33;2.30;;;9.80;99.90;;;;;;5061542;28;20450;-81
2022/12/30 10:29:15;;;;;;;8.70;1.30;;;9.90;99.90;;;;;;5060032;28;21153;-81
2022/12/30 10:31:45;;;;;;;5.83;1.30;;;9.90;99.90;;;;;;5042599;28;20487;-81
2022/12/30 10:34:14;;;;;;;7.27;1.33;;;10.00;99.90;;;;;;5040365;28;20433;-82
2022/12/30 10:36:49;;;;;;;5.17;1.40;;;10.10;99.90;;;;;;5040199;28;20510;-82
2022/12/30 10:39:18;;;;;;;2.30;0.93;;;10.00;99.90;;;;;;5039114;28;20453;-83
2022/12/30 10:41:58;;;;;;;6.23;1.37;;;10.20;99.90;;;;;;5058253;28;20492;-81
2022/12/30 10:44:30;;;;;;;3.80;1.33;;;10.20;99.90;;;;;;5061265;28;20441;-83
2022/12/30 10:47:17;;;;;;;4.17;1.10;;;10.20;99.90;;;;;;5052379;28;20464;-82
2022/12/30 10:49:55;;;;;;;5.80;1.20;;;10.20;99.90;;;;;;5058419;28;20496;-82
2022/12/30 10:52:23;;;;;;;3.67;1.40;;;10.50;99.90;;;;;;5057829;28;20525;-82
2022/12/30 10:54:50;;;;;;;4.90;1.40;;;10.60;99.90;;;;;;5075837;28;20529;-80
2022/12/30 10:57:22;;;;;;;3.97;1.07;;;10.80;99.90;;;;;;5060832;28;20951;-81
2022/12/30 10:59:49;;;;;;;5.93;2.33;;;10.80;99.90;;;;;;5057882;28;20452;-82
2022/12/30 11:02:18;;;;;;;4.33;1.20;;;10.80;99.90;;;;;;5040445;28;20482;-82
2022/12/30 11:04:45;;;;;;;4.37;1.10;;;10.80;99.90;;;;;;5039867;28;20460;-82
2022/12/30 11:07:15;;;;;;;3.10;1.27;;;10.80;99.90;;;;;;5041547;28;20454;-80
2022/12/30 11:09:44;;;;;;;5.60;1.27;;;10.60;99.90;;;;;;5040654;28;20488;-82
2022/12/30 11:15:12;;;;;;;3.47;1.03;;;10.40;99.90;;;;;;5059126;28;20820;-81
2022/12/30 11:17:44;;;;;;;4.53;1.10;;;10.50;99.90;;;;;;5058224;28;20450;-82
2022/12/30 11:20:27;;;;;;;6.40;1.53;;;10.40;99.90;;;;;;5053549;28;20439;-82
2022/12/30 11:22:56;;;;;;;6.40;1.23;;;10.30;99.90;;;;;;5087352;22;20509;-79
2022/12/30 11:25:29;;;;;;;6.73;1.40;;;10.20;99.90;;;;;;5068942;28;20460;-81
2022/12/30 11:28:00;;;;;;;4.17;1.23;;;10.20;99.90;;;;;;5043027;28;20454;-80
2022/12/30 11:30:30;;;;;;;5.43;1.30;;;10.20;99.90;;;;;;5038627;28;20478;-80
2022/12/30 11:33:00;;;;;;;3.70;1.40;;;10.10;99.90;;;;;;5038899;28;20553;-80
2022/12/30 11:35:36;;;;;;;3.67;1.40;;;10.10;99.90;;;;;;5037414;28;20454;-81
2022/12/30 11:38:06;;;;;;;5.43;1.00;;;10.10;99.90;;;;;;5052227;28;20462;-81
2022/12/30 11:40:36;;;;;;;6.17;1.80;;;10.00;99.90;;;;;;5057156;28;20443;-80
2022/12/30 11:43:12;;;;;;;5.43;1.23;;;10.00;99.90;;;;;;5057601;28;20470;-80
2022/12/30 11:45:52;;;;;;;4.80;1.67;;;10.00;99.90;;;;;;5058152;28;20505;-79
2022/12/30 11:48:24;;;;;;;4.10;1.30;;;10.00;99.90;;;;;;5056054;28;20561;-80
2022/12/30 11:50:54;;;;;;;10.80;1.80;;;10.00;99.90;;;;;;5056505;28;20513;-79
2022/12/30 11:53:25;;;;;;;7.53;1.30;;;10.00;99.90;;;;;;5055954;28;20876;-81
2022/12/30 11:55:54;;;;;;;4.03;1.23;;;10.00;99.90;;;;;;5056951;28;20444;-81
2022/12/30 11:58:22;;;;;;;2.50;1.30;;;9.90;99.90;;;;;;5055017;28;20461;-80
2022/12/30 12:00:59;;;;;;;3.40;1.10;;;9.80;99.90;;;;;;5058339;28;20534;-82
2022/12/30 12:03:29;;;;;;;2.37;1.13;;;9.90;99.90;;;;;;5058720;28;20484;-81
2022/12/30 12:06:08;;;;;;;2.50;1.30;;;9.90;99.90;;;;;;5058951;28;20447;-84
2022/12/30 12:08:42;;;;;;;5.23;1.40;;;9.80;99.90;;;;;;5056259;28;20450;-81
2022/12/30 12:11:14;;;;;;;3.73;1.87;;;9.80;99.90;;;;;;5057100;28;20481;-81
2022/12/30 12:13:48;;;;;;;3.93;1.17;;;9.80;99.90;;;;;;5056562;28;20488;-79
2022/12/30 12:16:19;;;;;;;5.97;1.40;;;9.80;99.90;;;;;;5056995;28;20444;-79
2022/12/30 12:18:51;;;;;;;3.23;1.40;;;9.80;99.90;;;;;;5057706;28;20434;-80
2022/12/30 12:21:23;;;;;;;3.10;1.00;;;9.80;99.90;;;;;;5059738;28;20434;-79
2022/12/30 12:23:57;;;;;;;6.40;1.40;;;9.80;99.90;;;;;;5060251;28;20580;-79
2022/12/30 12:26:29;;;;;;;3.97;1.13;;;9.80;99.90;;;;;;5058336;28;20920;-82
2022/12/30 12:28:58;;;;;;;2.23;1.17;;;9.80;99.90;;;;;;5055004;28;20439;-80
2022/12/30 12:32:08;;;;;;;1.90;1.00;;;9.80;99.90;;;;;;5055744;28;20487;-82
2022/12/30 12:34:46;;;;;;;3.20;1.07;;;9.80;99.90;;;;;;5055824;28;20449;-80
2022/12/30 12:37:26;;;;;;;3.90;1.50;;;9.80;99.90;;;;;;5055676;28;20449;-79
2022/12/30 12:40:21;;;;;;;5.37;1.20;;;9.80;99.90;;;;;;5054673;28;20452;-79
2022/12/30 12:42:55;;;;;;;3.97;1.20;;;9.80;99.90;;;;;;5055296;28;20543;-80
2022/12/30 12:45:42;;;;;;;2.47;1.20;;;9.80;99.90;;;;;;5055974;28;20537;-81
2022/12/30 12:48:30;;;;;;;3.20;1.27;;;9.80;99.90;;;;;;5054873;28;20454;-80
2022/12/30 12:51:12;;;;;;;4.23;1.20;;;9.70;99.90;;;;;;5052798;28;21061;-79
2022/12/30 12:53:56;;;;;;;7.40;1.40;;;9.70;99.90;;;;;;5055289;28;20469;-81
2022/12/30 12:57:01;;;;;;;6.90;1.50;;;9.70;99.90;;;;;;5055299;28;20952;-80
2022/12/30 12:59:44;;;;;;;3.17;1.40;;;9.70;99.90;;;;;;5054219;28;20445;-80
2022/12/30 13:02:34;;;;;;;5.13;1.37;;;9.70;99.90;;;;;;5055754;28;20481;-80
2022/12/30 13:05:07;;;;;;;3.30;1.67;;;9.80;99.90;;;;;;5054137;28;20437;-79
2022/12/30 13:07:44;;;;;;;4.70;1.37;;;9.90;99.90;;;;;;5053825;28;20456;-79
2022/12/30 13:10:29;;;;;;;2.00;0.90;;;10.00;99.90;;;;;;5053796;28;20486;-78
2022/12/30 13:13:02;;;;;;;4.63;1.30;;;10.00;99.90;;;;;;5058905;28;20474;-79
2022/12/30 13:15:35;;;;;;;3.30;1.20;;;10.10;99.90;;;;;;5056071;28;20519;-77
2022/12/30 13:18:06;;;;;;;6.87;1.83;;;10.20;99.90;;;;;;5055169;28;20509;-78
2022/12/30 13:20:45;;;;;;;3.50;1.50;;;10.20;99.90;;;;;;5056880;28;20447;-78
2022/12/30 13:23:15;;;;;;;4.73;1.23;;;10.20;99.90;;;;;;5056610;28;20480;-78
2022/12/30 13:25:43;;;;;;;3.90;0.90;;;10.30;99.90;;;;;;5056350;28;20458;-78
2022/12/30 13:28:19;;;;;;;4.00;1.23;;;10.40;99.90;;;;;;5055972;28;20458;-78
2022/12/30 13:30:57;;;;;;;3.50;1.27;;;10.40;99.90;;;;;;5050611;28;20572;-77
2022/12/30 13:33:29;;;;;;;3.97;1.23;;;10.40;99.90;;;;;;5047563;28;20475;-79
2022/12/30 13:36:04;;;;;;;2.17;0.90;;;10.30;99.90;;;;;;5049751;28;20447;-79
2022/12/30 13:38:43;;;;;;;6.30;1.40;;;10.30;99.90;;;;;;5049426;28;20474;-78
2022/12/30 13:41:30;;;;;;;5.93;1.50;;;10.30;99.90;;;;;;5046394;28;20447;-78
2022/12/30 13:43:59;;;;;;;6.30;1.27;;;10.30;99.90;;;;;;5049135;28;20440;-78
2022/12/30 13:46:30;;;;;;;2.90;1.33;;;10.10;99.90;;;;;;5053592;28;20459;-80
2022/12/30 13:49:00;;;;;;;3.47;1.10;;;9.80;99.90;;;;;;5057512;28;21009;-81
2022/12/30 13:51:29;;;;;;;4.03;2.07;;;9.50;99.90;;;;;;5059207;28;20485;-78
2022/12/30 13:53:58;;;;;;;2.17;1.37;;;9.30;99.90;;;;;;5058335;28;20462;-80
2022/12/30 13:56:36;;;;;;;2.00;1.23;;;9.10;99.90;;;;;;5057004;28;20465;-79
2022/12/30 13:59:04;;;;;;;3.50;1.20;;;9.00;99.90;;;;;;5057716;28;20429;-80
2022/12/30 14:01:35;;;;;;;6.23;1.47;;;9.00;99.90;;;;;;5057703;28;20499;-79
2022/12/30 14:04:30;;;;;;;5.60;1.63;;;8.80;99.90;;;;;;5058253;28;20432;-80
2022/12/30 14:06:58;;;;;;;3.90;1.30;;;8.80;99.90;;;;;;5011066;28;20514;-80